createdAt,value
2018-07-17T00:00:04.266Z,16.125
2018-07-17T00:01:03.880Z,16.062
2018-07-17T00:02:03.727Z,16.062
2018-07-17T00:03:03.895Z,16.062
2018-07-17T00:04:03.552Z,16
2018-07-17T00:05:04.139Z,15.937
2018-07-17T00:06:03.443Z,15.937
2018-07-17T00:07:03.777Z,16
2018-07-17T00:08:04.266Z,16
2018-07-17T00:09:04.933Z,16.062
2018-07-17T00:10:03.387Z,16.062
2018-07-17T00:11:04.042Z,16.062
2018-07-17T00:12:03.712Z,16
2018-07-17T00:13:04.114Z,16
2018-07-17T00:14:03.500Z,16
2018-07-17T00:15:04.120Z,15.937
2018-07-17T00:16:03.858Z,15.937
2018-07-17T00:17:03.576Z,16
2018-07-17T00:18:03.463Z,16
2018-07-17T00:19:04.300Z,16
2018-07-17T00:20:04.362Z,16
2018-07-17T00:21:04.315Z,16.062
2018-07-17T00:22:04.039Z,16.062
2018-07-17T00:23:03.523Z,16
2018-07-17T00:24:04.250Z,16.062
2018-07-17T00:25:03.828Z,16.062
2018-07-17T00:26:03.714Z,16.125
2018-07-17T00:27:04.245Z,16.125
2018-07-17T00:28:03.657Z,16.187
2018-07-17T00:29:03.521Z,16.25
2018-07-17T00:30:04.117Z,16.312
2018-07-17T00:31:04.036Z,16.312
2018-07-17T00:32:03.284Z,16.312
2018-07-17T00:33:04.404Z,16.312
2018-07-17T00:34:03.797Z,16.312
2018-07-17T00:35:03.794Z,16.375
2018-07-17T00:36:03.438Z,16.437
2018-07-17T00:37:04.315Z,16.437
2018-07-17T00:38:03.467Z,16.437
2018-07-17T00:39:04.427Z,16.437
2018-07-17T00:40:03.920Z,16.437
2018-07-17T00:41:03.578Z,16.375
2018-07-17T00:42:03.506Z,16.312
2018-07-17T00:43:03.356Z,16.25
2018-07-17T00:44:03.528Z,16.187
2018-07-17T00:45:04.131Z,16.187
2018-07-17T00:46:04.541Z,16.125
2018-07-17T00:47:04.079Z,16.062
2018-07-17T00:48:03.790Z,16.125
2018-07-17T00:49:03.927Z,16.125
2018-07-17T00:50:03.597Z,16.125
2018-07-17T00:51:03.978Z,16.062
2018-07-17T00:52:03.628Z,16
2018-07-17T00:53:05.302Z,16
2018-07-17T00:54:03.732Z,16
2018-07-17T00:55:03.631Z,16
2018-07-17T00:56:04.315Z,15.812
2018-07-17T00:57:03.343Z,15.75
2018-07-17T00:58:04.014Z,15.687
2018-07-17T00:59:03.826Z,15.625
2018-07-17T01:00:03.622Z,15.562
2018-07-17T01:01:04.453Z,15.562
2018-07-17T01:02:03.806Z,15.5
2018-07-17T01:03:03.278Z,15.5
2018-07-17T01:04:03.913Z,15.5
2018-07-17T01:05:03.485Z,15.562
2018-07-17T01:06:04.079Z,15.687
2018-07-17T01:07:04.344Z,15.75
2018-07-17T01:08:03.503Z,15.812
2018-07-17T01:09:03.880Z,15.812
2018-07-17T01:10:03.526Z,15.875
2018-07-17T01:11:03.388Z,15.812
2018-07-17T01:12:04.082Z,15.687
2018-07-17T01:13:03.705Z,15.625
2018-07-17T01:14:04.476Z,15.562
2018-07-17T01:15:03.975Z,15.562
2018-07-17T01:16:03.517Z,15.562
2018-07-17T01:17:05.339Z,15.562
2018-07-17T01:18:03.686Z,15.5
2018-07-17T01:19:03.355Z,15.437
2018-07-17T01:20:04.075Z,15.437
2018-07-17T01:21:03.835Z,15.375
2018-07-17T01:22:03.747Z,15.312
2018-07-17T01:23:03.554Z,15.312
2018-07-17T01:24:03.681Z,15.25
2018-07-17T01:25:03.507Z,15.25
2018-07-17T01:26:05.250Z,15.187
2018-07-17T01:27:03.676Z,15.187
2018-07-17T01:28:04.150Z,15.125
2018-07-17T01:29:03.933Z,15.187
2018-07-17T01:30:03.468Z,15.187
2018-07-17T01:31:04.159Z,15.125
2018-07-17T01:32:03.615Z,15.125
2018-07-17T01:33:08.168Z,15.062
2018-07-17T01:34:04.138Z,15.062
2018-07-17T01:35:03.697Z,15
2018-07-17T01:36:04.362Z,15
2018-07-17T01:37:03.677Z,14.937
2018-07-17T01:38:04.247Z,14.937
2018-07-17T01:39:04.034Z,14.875
2018-07-17T01:40:03.621Z,14.875
2018-07-17T01:41:04.288Z,14.812
2018-07-17T01:42:04.119Z,14.75
2018-07-17T01:43:04.140Z,14.75
2018-07-17T01:44:03.699Z,14.687
2018-07-17T01:45:04.133Z,14.687
2018-07-17T01:46:03.720Z,14.687
2018-07-17T01:47:05.273Z,14.687
2018-07-17T01:48:03.904Z,14.812
2018-07-17T01:49:03.459Z,14.875
2018-07-17T01:50:04.012Z,14.937
2018-07-17T01:51:03.730Z,14.937
2018-07-17T01:52:04.368Z,15
2018-07-17T01:53:03.746Z,15.062
2018-07-17T01:54:03.298Z,15.062
2018-07-17T01:55:03.964Z,15.062
2018-07-17T01:56:03.668Z,15.125
2018-07-17T01:57:04.255Z,15.062
2018-07-17T01:58:04.049Z,15
2018-07-17T01:59:03.705Z,14.937
2018-07-17T02:00:03.528Z,14.875
2018-07-17T02:01:04.278Z,14.875
2018-07-17T02:02:03.893Z,14.937
2018-07-17T02:03:03.698Z,15
2018-07-17T02:04:04.335Z,15.062
2018-07-17T02:05:03.649Z,14.937
2018-07-17T02:06:03.516Z,14.937
2018-07-17T02:07:03.521Z,14.812
2018-07-17T02:08:04.182Z,14.812
2018-07-17T02:09:05.466Z,14.812
2018-07-17T02:10:03.840Z,14.812
2018-07-17T02:11:03.565Z,14.937
2018-07-17T02:12:03.958Z,15
2018-07-17T02:13:03.849Z,14.937
2018-07-17T02:14:03.676Z,14.937
2018-07-17T02:15:04.205Z,14.875
2018-07-17T02:16:04.245Z,14.812
2018-07-17T02:17:03.992Z,14.75
2018-07-17T02:18:03.357Z,14.812
2018-07-17T02:19:04.002Z,14.812
2018-07-17T02:20:03.706Z,14.812
2018-07-17T02:21:03.391Z,14.812
2018-07-17T02:22:03.815Z,14.875
2018-07-17T02:23:03.993Z,14.875
2018-07-17T02:24:03.475Z,14.875
2018-07-17T02:25:04.095Z,14.875
2018-07-17T02:26:03.540Z,14.875
2018-07-17T02:27:04.119Z,14.875
2018-07-17T02:28:03.813Z,14.875
2018-07-17T02:29:04.049Z,14.875
2018-07-17T02:30:03.598Z,14.875
2018-07-17T02:31:04.168Z,14.875
2018-07-17T02:32:03.712Z,14.875
2018-07-17T02:33:04.275Z,14.812
2018-07-17T02:34:03.865Z,14.75
2018-07-17T02:35:03.455Z,14.812
2018-07-17T02:36:04.299Z,14.812
2018-07-17T02:37:03.492Z,14.875
2018-07-17T02:38:03.930Z,14.875
2018-07-17T02:39:03.673Z,14.812
2018-07-17T02:40:04.183Z,14.812
2018-07-17T02:41:03.529Z,14.812
2018-07-17T02:42:03.350Z,14.875
2018-07-17T02:43:04.001Z,14.875
2018-07-17T02:44:03.756Z,14.937
2018-07-17T02:45:03.405Z,14.937
2018-07-17T02:46:04.124Z,14.875
2018-07-17T02:47:03.911Z,14.875
2018-07-17T02:48:04.342Z,14.875
2018-07-17T02:49:03.818Z,14.875
2018-07-17T02:50:03.475Z,14.875
2018-07-17T02:51:03.792Z,14.937
2018-07-17T02:52:03.437Z,14.937
2018-07-17T02:53:03.585Z,14.875
2018-07-17T02:54:04.321Z,14.875
2018-07-17T02:55:04.098Z,14.875
2018-07-17T02:56:03.727Z,14.875
2018-07-17T02:57:04.293Z,14.937
2018-07-17T02:58:03.964Z,15
2018-07-17T02:59:03.485Z,14.937
2018-07-17T03:00:03.895Z,14.875
2018-07-17T03:01:03.375Z,14.812
2018-07-17T03:02:03.983Z,14.812
2018-07-17T03:03:03.634Z,14.75
2018-07-17T03:04:03.775Z,14.75
2018-07-17T03:05:03.753Z,14.687
2018-07-17T03:06:04.270Z,14.687
2018-07-17T03:07:03.728Z,14.625
2018-07-17T03:08:03.608Z,14.625
2018-07-17T03:09:05.338Z,14.625
2018-07-17T03:10:03.627Z,14.625
2018-07-17T03:11:03.413Z,14.625
2018-07-17T03:12:03.806Z,14.562
2018-07-17T03:13:03.370Z,14.562
2018-07-17T03:14:03.540Z,14.562
2018-07-17T03:15:04.373Z,14.625
2018-07-17T03:16:03.714Z,14.625
2018-07-17T03:17:03.639Z,14.625
2018-07-17T03:18:04.282Z,14.625
2018-07-17T03:19:03.521Z,14.625
2018-07-17T03:20:04.242Z,14.625
2018-07-17T03:21:03.894Z,14.625
2018-07-17T03:22:03.450Z,14.625
2018-07-17T03:23:03.727Z,14.625
2018-07-17T03:24:03.520Z,14.687
2018-07-17T03:25:04.146Z,14.75
2018-07-17T03:26:03.679Z,14.75
2018-07-17T03:27:03.764Z,14.812
2018-07-17T03:42:08.827Z,14.812
2018-07-17T03:42:08.833Z,14.625
2018-07-17T03:42:08.835Z,14.812
2018-07-17T03:42:09.077Z,14.687
2018-07-17T03:42:17.121Z,14.812
2018-07-17T03:42:18.311Z,14.75
2018-07-17T03:42:29.476Z,14.875
2018-07-17T03:42:38.600Z,14.812
2018-07-17T03:42:45.833Z,14.812
2018-07-17T03:43:05.310Z,14.625
2018-07-17T03:44:03.165Z,14.562
2018-07-17T03:45:03.312Z,14.625
2018-07-17T03:58:02.112Z,14.687
2018-07-17T03:58:03.378Z,15.125
2018-07-17T03:58:08.396Z,15.062
2018-07-17T03:58:15.676Z,15.062
2018-07-17T03:58:19.158Z,15.062
2018-07-17T03:58:19.673Z,14.625
2018-07-17T03:58:23.056Z,14.625
2018-07-17T03:58:32.035Z,15
2018-07-17T03:58:59.639Z,14.875
2018-07-17T03:59:04.183Z,15.125
2018-07-17T04:00:03.689Z,15.125
2018-07-17T04:01:03.916Z,15.187
2018-07-17T04:02:04.112Z,15.25
2018-07-17T04:03:04.159Z,15.312
2018-07-17T04:04:03.478Z,15.312
2018-07-17T04:05:03.611Z,15.375
2018-07-17T04:06:04.014Z,15.375
2018-07-17T04:07:03.217Z,15.375
2018-07-17T04:08:03.513Z,15.437
2018-07-17T04:09:04.941Z,15.437
2018-07-17T04:10:03.990Z,15.5
2018-07-17T04:11:04.178Z,15.562
2018-07-17T04:12:03.373Z,15.625
2018-07-17T04:13:03.460Z,15.687
2018-07-17T04:14:03.733Z,15.687
2018-07-17T04:15:03.858Z,15.75
2018-07-17T04:16:04.172Z,15.875
2018-07-17T04:17:03.591Z,15.875
2018-07-17T04:18:04.074Z,15.937
2018-07-17T04:19:03.384Z,16
2018-07-17T04:20:03.561Z,16.062
2018-07-17T04:21:03.792Z,16.062
2018-07-17T04:22:03.860Z,16.062
2018-07-17T04:23:04.034Z,16.125
2018-07-17T04:24:04.077Z,16.125
2018-07-17T04:25:04.044Z,16.125
2018-07-17T04:26:03.852Z,16.187
2018-07-17T04:27:04.074Z,16.25
2018-07-17T04:28:03.293Z,16.25
2018-07-17T04:29:03.756Z,16.312
2018-07-17T04:30:04.079Z,16.312
2018-07-17T04:31:03.422Z,16.312
2018-07-17T04:32:03.835Z,16.312
2018-07-17T04:33:04.141Z,16.312
2018-07-17T04:34:04.281Z,16.375
2018-07-17T04:35:04.138Z,16.375
2018-07-17T04:36:03.136Z,16.375
2018-07-17T04:37:03.699Z,16.375
2018-07-17T04:38:03.899Z,16.375
2018-07-17T04:39:04.519Z,16.375
2018-07-17T04:40:03.738Z,16.375
2018-07-17T04:41:03.951Z,16.375
2018-07-17T04:42:03.825Z,16.437
2018-07-17T04:43:03.956Z,16.437
2018-07-17T04:44:03.501Z,16.437
2018-07-17T04:45:04.095Z,16.437
2018-07-17T04:46:03.523Z,16.5
2018-07-17T04:47:03.810Z,16.5
2018-07-17T04:48:04.018Z,16.562
2018-07-17T04:49:03.262Z,16.625
2018-07-17T04:50:03.399Z,16.687
2018-07-17T04:51:03.452Z,16.687
2018-07-17T04:52:03.798Z,16.75
2018-07-17T04:53:03.961Z,16.812
2018-07-17T04:54:03.427Z,16.875
2018-07-17T04:55:03.642Z,16.875
2018-07-17T04:56:03.811Z,16.937
2018-07-17T04:57:04.001Z,16.937
2018-07-17T04:58:03.251Z,17
2018-07-17T04:59:03.525Z,17.062
2018-07-17T05:00:03.667Z,17.062
2018-07-17T05:01:04.066Z,17.125
2018-07-17T05:02:03.323Z,17.187
2018-07-17T05:03:03.529Z,17.187
2018-07-17T05:04:03.856Z,17.25
2018-07-17T05:05:03.396Z,17.25
2018-07-17T05:06:03.533Z,17.312
2018-07-17T05:07:03.712Z,17.312
2018-07-17T05:08:03.797Z,17.375
2018-07-17T05:09:05.144Z,17.437
2018-07-17T05:10:03.196Z,17.437
2018-07-17T05:11:03.342Z,17.5
2018-07-17T05:12:03.538Z,17.5
2018-07-17T05:13:03.871Z,17.562
2018-07-17T05:14:03.223Z,17.625
2018-07-17T05:15:03.367Z,17.687
2018-07-17T05:16:03.741Z,17.687
2018-07-17T05:17:05.142Z,17.75
2018-07-17T05:18:03.955Z,17.75
2018-07-17T05:19:04.075Z,17.812
2018-07-17T05:20:04.325Z,17.875
2018-07-17T05:21:03.578Z,17.937
2018-07-17T05:22:04.687Z,18
2018-07-17T05:23:03.715Z,18
2018-07-17T05:24:03.740Z,18
2018-07-17T05:25:03.795Z,18.062
2018-07-17T05:26:04.047Z,18.125
2018-07-17T05:27:03.334Z,18.187
2018-07-17T05:28:03.488Z,18.187
2018-07-17T05:29:04.000Z,18.25
2018-07-17T05:30:03.311Z,18.312
2018-07-17T05:31:03.466Z,18.375
2018-07-17T05:32:03.613Z,18.375
2018-07-17T05:33:03.615Z,18.437
2018-07-17T05:34:03.642Z,18.5
2018-07-17T05:35:03.402Z,18.562
2018-07-17T05:36:03.804Z,18.687
2018-07-17T05:37:03.957Z,18.687
2018-07-17T05:38:04.634Z,18.75
2018-07-17T05:39:03.862Z,18.812
2018-07-17T05:40:04.045Z,18.812
2018-07-17T05:41:03.252Z,18.875
2018-07-17T05:42:03.731Z,18.875
2018-07-17T05:43:03.473Z,18.937
2018-07-17T05:44:03.810Z,19
2018-07-17T05:45:04.262Z,19
2018-07-17T05:46:03.300Z,19.062
2018-07-17T05:47:03.429Z,19.125
2018-07-17T05:48:03.817Z,19.187
2018-07-17T05:49:04.014Z,19.187
2018-07-17T05:50:03.875Z,19.25
2018-07-17T05:51:03.844Z,19.312
2018-07-17T05:52:04.147Z,19.375
2018-07-17T05:53:03.752Z,19.437
2018-07-17T05:54:03.881Z,19.5
2018-07-17T05:55:04.016Z,19.562
2018-07-17T05:56:03.350Z,19.687
2018-07-17T05:57:03.641Z,19.687
2018-07-17T05:58:03.800Z,19.875
2018-07-17T05:59:03.927Z,19.937
2018-07-17T06:00:03.472Z,20
2018-07-17T06:01:04.163Z,20.062
2018-07-17T06:02:03.290Z,20.187
2018-07-17T06:03:03.636Z,20.312
2018-07-17T06:04:04.028Z,20.437
2018-07-17T06:05:03.312Z,20.625
2018-07-17T06:06:03.318Z,20.75
2018-07-17T06:07:03.607Z,20.937
2018-07-17T06:08:03.997Z,21.062
2018-07-17T06:09:04.439Z,21.375
2018-07-17T06:10:03.596Z,21.562
2018-07-17T06:11:03.714Z,21.812
2018-07-17T06:12:03.867Z,21.937
2018-07-17T06:13:04.126Z,22.062
2018-07-17T06:14:03.268Z,22.062
2018-07-17T06:15:03.615Z,22.125
2018-07-17T06:16:03.941Z,22.187
2018-07-17T06:17:03.418Z,22.187
2018-07-17T06:18:03.614Z,22.125
2018-07-17T06:19:04.082Z,22.125
2018-07-17T06:20:03.396Z,22.187
2018-07-17T06:21:03.531Z,22.187
2018-07-17T06:22:03.981Z,22.187
2018-07-17T06:23:03.288Z,22.125
2018-07-17T06:24:03.624Z,22.062
2018-07-17T06:25:03.893Z,22.062
2018-07-17T06:26:03.481Z,22.062
2018-07-17T06:27:03.963Z,22.062
2018-07-17T06:28:04.148Z,22.062
2018-07-17T06:29:03.635Z,22.125
2018-07-17T06:30:04.033Z,22.125
2018-07-17T06:31:03.401Z,22.125
2018-07-17T06:32:03.559Z,22.187
2018-07-17T06:33:03.480Z,22.25
2018-07-17T06:34:03.824Z,22.312
2018-07-17T06:35:04.137Z,22.312
2018-07-17T06:36:03.301Z,22.375
2018-07-17T06:37:03.498Z,22.562
2018-07-17T06:38:03.660Z,22.562
2018-07-17T06:39:04.265Z,22.687
2018-07-17T06:40:03.389Z,22.687
2018-07-17T06:41:03.702Z,22.812
2018-07-17T06:42:03.907Z,22.812
2018-07-17T06:43:03.265Z,22.875
2018-07-17T06:44:03.697Z,22.937
2018-07-17T06:45:03.732Z,22.875
2018-07-17T06:46:04.171Z,22.875
2018-07-17T06:47:03.168Z,22.812
2018-07-17T06:48:03.710Z,22.875
2018-07-17T06:49:03.819Z,22.937
2018-07-17T06:50:04.246Z,22.875
2018-07-17T06:51:03.416Z,22.937
2018-07-17T06:52:03.512Z,22.937
2018-07-17T06:53:03.373Z,23
2018-07-17T06:54:03.888Z,23
2018-07-17T06:55:03.313Z,23.062
2018-07-17T06:56:03.639Z,23.125
2018-07-17T06:57:03.938Z,23.187
2018-07-17T06:58:04.058Z,23.125
2018-07-17T06:59:03.589Z,23.187
2018-07-17T07:00:03.936Z,23.312
2018-07-17T07:01:03.370Z,23.375
2018-07-17T07:02:03.659Z,23.375
2018-07-17T07:03:03.947Z,23.375
2018-07-17T07:04:04.166Z,23.437
2018-07-17T07:05:04.499Z,23.5
2018-07-17T07:06:03.562Z,23.562
2018-07-17T07:07:03.389Z,23.562
2018-07-17T07:08:03.872Z,23.625
2018-07-17T07:09:04.444Z,23.687
2018-07-17T07:10:03.481Z,23.75
2018-07-17T07:11:04.128Z,23.812
2018-07-17T07:12:03.615Z,23.937
2018-07-17T07:13:03.957Z,24
2018-07-17T07:14:03.254Z,23.937
2018-07-17T07:15:03.663Z,24
2018-07-17T07:16:03.781Z,24.062
2018-07-17T07:17:04.120Z,24.125
2018-07-17T07:18:03.546Z,24.187
2018-07-17T07:19:03.860Z,24.187
2018-07-17T07:20:04.104Z,24.125
2018-07-17T07:21:04.174Z,24.187
2018-07-17T07:22:03.244Z,24.25
2018-07-17T07:23:03.951Z,24.437
2018-07-17T07:24:03.266Z,24.562
2018-07-17T07:25:03.718Z,24.687
2018-07-17T07:26:03.898Z,24.875
2018-07-17T07:27:04.162Z,25
2018-07-17T07:28:03.519Z,25.062
2018-07-17T07:29:03.826Z,25.312
2018-07-17T07:30:04.015Z,25.375
2018-07-17T07:31:03.368Z,25.25
2018-07-17T07:32:03.635Z,25.375
2018-07-17T07:33:03.916Z,25.437
2018-07-17T07:34:04.229Z,25.625
2018-07-17T07:35:03.257Z,25.75
2018-07-17T07:36:03.589Z,25.937
2018-07-17T07:37:04.052Z,26
2018-07-17T07:38:03.254Z,26.062
2018-07-17T07:39:04.119Z,26.187
2018-07-17T07:40:03.439Z,26.312
2018-07-17T07:41:03.758Z,26.375
2018-07-17T07:42:03.311Z,26.375
2018-07-17T07:43:04.709Z,26.562
2018-07-17T07:44:03.649Z,26.75
2018-07-17T07:45:03.808Z,26.812
2018-07-17T07:46:04.042Z,26.875
2018-07-17T07:47:04.037Z,26.937
2018-07-17T07:48:03.250Z,26.875
2018-07-17T07:49:03.587Z,26.812
2018-07-17T07:50:03.961Z,26.812
2018-07-17T07:51:04.101Z,26.875
2018-07-17T07:52:03.576Z,26.875
2018-07-17T07:53:03.693Z,26.875
2018-07-17T07:54:04.088Z,27.062
2018-07-17T07:55:03.572Z,27.25
2018-07-17T07:56:03.777Z,27.25
2018-07-17T07:57:03.931Z,27.375
2018-07-17T07:58:04.139Z,27.375
2018-07-17T07:59:04.285Z,27.312
2018-07-17T08:00:04.683Z,27.187
2018-07-17T08:01:03.752Z,27.062
2018-07-17T08:02:04.115Z,27
2018-07-17T08:03:03.301Z,27
2018-07-17T08:04:03.539Z,26.875
2018-07-17T08:05:03.695Z,26.812
2018-07-17T08:06:04.136Z,26.812
2018-07-17T08:07:03.342Z,26.812
2018-07-17T08:08:03.468Z,26.75
2018-07-17T08:11:03.561Z,26.562
2018-07-17T08:12:03.747Z,26.5
2018-07-17T08:13:03.929Z,26.562
2018-07-17T08:14:03.261Z,26.625
2018-07-17T08:15:03.524Z,26.625
2018-07-17T08:16:03.716Z,26.687
2018-07-17T08:17:05.150Z,26.75
2018-07-17T08:18:03.226Z,26.812
2018-07-17T08:19:03.456Z,27.062
2018-07-17T08:20:03.840Z,27.312
2018-07-17T08:21:04.130Z,27.687
2018-07-17T08:22:03.480Z,28.062
2018-07-17T08:23:03.774Z,28.375
2018-07-17T08:24:04.030Z,28.5
2018-07-17T08:25:03.571Z,28.75
2018-07-17T08:26:03.242Z,28.75
2018-07-17T08:27:03.547Z,28.812
2018-07-17T08:28:04.002Z,29.125
2018-07-17T08:29:03.340Z,29.437
2018-07-17T08:30:03.662Z,29.562
2018-07-17T08:31:03.987Z,29.687
2018-07-17T08:32:03.407Z,29.75
2018-07-17T08:33:03.508Z,29.562
2018-07-17T08:34:03.876Z,29.437
2018-07-17T08:35:04.135Z,29.125
2018-07-17T08:36:03.494Z,29.125
2018-07-17T08:37:03.599Z,29.187
2018-07-17T08:38:03.967Z,29.437
2018-07-17T08:39:04.361Z,29.5
2018-07-17T08:40:04.582Z,29.562
2018-07-17T08:41:03.646Z,29.812
2018-07-17T08:42:03.859Z,29.75
2018-07-17T08:43:04.074Z,29.5
2018-07-17T08:44:03.245Z,29.437
2018-07-17T08:45:03.505Z,29.375
2018-07-17T08:46:03.583Z,29.187
2018-07-17T08:47:04.027Z,29.25
2018-07-17T08:48:03.231Z,29.25
2018-07-17T08:49:03.447Z,29.125
2018-07-17T08:50:03.799Z,29.062
2018-07-17T08:51:04.002Z,29.062
2018-07-17T08:52:05.148Z,29.312
2018-07-17T08:53:04.109Z,29.625
2018-07-17T08:54:03.874Z,29.875
2018-07-17T08:55:03.242Z,30.125
2018-07-17T08:56:03.566Z,30.312
2018-07-17T08:57:04.109Z,30.562
2018-07-17T08:58:03.243Z,30.937
2018-07-17T08:59:03.368Z,31.062
2018-07-17T09:00:03.792Z,31.062
2018-07-17T09:01:04.085Z,30.937
2018-07-17T09:02:03.407Z,30.875
2018-07-17T09:03:03.614Z,30.687
2018-07-17T09:04:03.937Z,30.625
2018-07-17T09:05:04.145Z,30.562
2018-07-17T09:06:03.527Z,30.562
2018-07-17T09:07:03.432Z,30.75
2018-07-17T09:08:04.004Z,30.937
2018-07-17T09:09:04.452Z,30.937
2018-07-17T09:10:03.637Z,30.937
2018-07-17T09:11:03.986Z,30.75
2018-07-17T09:12:03.295Z,30.437
2018-07-17T09:13:03.370Z,30.25
2018-07-17T09:14:03.848Z,30.187
2018-07-17T09:15:03.965Z,29.937
2018-07-17T09:16:04.128Z,29.812
2018-07-17T09:17:03.604Z,29.5
2018-07-17T09:18:03.861Z,29.312
2018-07-17T09:19:04.224Z,29.312
2018-07-17T09:20:03.235Z,29.437
2018-07-17T09:21:03.333Z,29.625
2018-07-17T09:22:03.586Z,29.687
2018-07-17T09:23:03.700Z,29.687
2018-07-17T09:24:04.013Z,29.75
2018-07-17T09:25:03.473Z,29.937
2018-07-17T09:26:03.677Z,29.812
2018-07-17T09:27:04.148Z,29.937
2018-07-17T09:28:03.629Z,30.125
2018-07-17T09:29:03.941Z,30.125
2018-07-17T09:30:03.425Z,29.937
2018-07-17T09:31:03.745Z,29.937
2018-07-17T09:32:04.021Z,29.937
2018-07-17T09:33:04.117Z,29.937
2018-07-17T09:34:03.281Z,29.562
2018-07-17T09:35:03.801Z,29.312
2018-07-17T09:36:04.274Z,29.125
2018-07-17T09:37:04.071Z,29.125
2018-07-17T09:38:03.231Z,29.062
2018-07-17T09:39:03.538Z,29.062
2018-07-17T09:40:03.801Z,29.125
2018-07-17T09:41:04.031Z,29.375
2018-07-17T09:42:04.587Z,29.312
2018-07-17T09:43:03.456Z,29.625
2018-07-17T09:44:03.840Z,30.062
2018-07-17T09:45:03.766Z,30.187
2018-07-17T09:46:04.041Z,30.312
2018-07-17T09:47:04.689Z,30.125
2018-07-17T09:48:04.131Z,30.375
2018-07-17T09:49:03.551Z,30.75
2018-07-17T09:50:04.288Z,31.062
2018-07-17T09:51:03.963Z,31.25
2018-07-17T09:52:04.119Z,31.187
2018-07-17T09:53:03.148Z,31.187
2018-07-17T09:54:03.315Z,31.25
2018-07-17T09:55:03.641Z,31.312
2018-07-17T09:56:04.310Z,31.562
2018-07-17T09:57:03.616Z,31.375
2018-07-17T09:58:03.960Z,30.875
2018-07-17T09:59:03.349Z,30.375
2018-07-17T10:00:03.740Z,30.062
2018-07-17T10:01:03.870Z,29.562
2018-07-17T10:02:03.902Z,29.25
2018-07-17T10:03:04.027Z,28.937
2018-07-17T10:04:04.177Z,28.625
2018-07-17T10:05:03.420Z,28.375
2018-07-17T10:06:03.796Z,28.187
2018-07-17T10:07:03.938Z,28.062
2018-07-17T10:08:03.306Z,28.062
2018-07-17T10:09:03.799Z,28.062
2018-07-17T10:10:03.972Z,28.125
2018-07-17T10:11:03.352Z,28.375
2018-07-17T10:12:03.719Z,28.562
2018-07-17T10:13:03.801Z,29
2018-07-17T10:14:04.032Z,29.375
2018-07-17T10:15:04.034Z,29.625
2018-07-17T10:16:04.179Z,29.75
2018-07-17T10:17:03.616Z,29.937
2018-07-17T10:18:03.942Z,30.125
2018-07-17T10:19:03.250Z,30.312
2018-07-17T10:20:03.575Z,30.25
2018-07-17T10:21:04.136Z,30.375
2018-07-17T10:22:03.242Z,30.437
2018-07-17T10:23:03.347Z,30.5
2018-07-17T10:24:03.654Z,30.625
2018-07-17T10:25:03.840Z,30.75
2018-07-17T10:26:03.329Z,30.75
2018-07-17T10:27:03.569Z,30.75
2018-07-17T10:28:03.719Z,30.75
2018-07-17T10:29:03.967Z,30.875
2018-07-17T10:30:04.147Z,30.687
2018-07-17T10:31:03.500Z,30.812
2018-07-17T10:32:03.861Z,31.187
2018-07-17T10:33:04.088Z,31.312
2018-07-17T10:34:03.461Z,31.25
2018-07-17T10:35:03.718Z,31.125
2018-07-17T10:36:03.948Z,31.062
2018-07-17T10:37:04.037Z,31.062
2018-07-17T10:38:04.186Z,31
2018-07-17T10:39:03.650Z,31.062
2018-07-17T10:40:03.875Z,31.062
2018-07-17T10:41:03.277Z,30.812
2018-07-17T10:42:04.131Z,30.562
2018-07-17T10:43:03.204Z,30.5
2018-07-17T10:44:03.322Z,30.562
2018-07-17T10:45:03.379Z,30.5
2018-07-17T10:46:03.389Z,30.5
2018-07-17T10:47:03.564Z,30.562
2018-07-17T10:48:04.168Z,30.625
2018-07-17T10:49:04.109Z,30.562
2018-07-17T10:50:03.268Z,30.625
2018-07-17T10:51:03.776Z,30.687
2018-07-17T10:52:04.088Z,30.812
2018-07-17T10:53:03.594Z,30.937
2018-07-17T10:54:03.881Z,31.062
2018-07-17T10:55:03.265Z,31.062
2018-07-17T10:56:03.538Z,31
2018-07-17T10:57:03.802Z,31
2018-07-17T10:58:04.103Z,31.062
2018-07-17T10:59:03.453Z,31.062
2018-07-17T11:00:03.789Z,31.187
2018-07-17T11:01:04.058Z,31.062
2018-07-17T11:02:03.390Z,31.187
2018-07-17T11:03:03.764Z,31.25
2018-07-17T11:04:03.829Z,31.312
2018-07-17T11:05:04.120Z,31.375
2018-07-17T11:06:03.413Z,31.5
2018-07-17T11:07:03.783Z,31.562
2018-07-17T11:08:04.065Z,31.625
2018-07-17T11:09:03.746Z,31.312
2018-07-17T11:10:03.937Z,30.875
2018-07-17T11:11:03.292Z,30.5
2018-07-17T11:12:03.559Z,30.5
2018-07-17T11:13:03.789Z,30.437
2018-07-17T11:14:04.050Z,30.562
2018-07-17T11:15:03.533Z,30.812
2018-07-17T11:16:03.742Z,30.812
2018-07-17T11:17:04.176Z,30.75
2018-07-17T11:18:03.242Z,30.687
2018-07-17T11:19:03.323Z,30.875
2018-07-17T11:20:03.623Z,31.125
2018-07-17T11:21:03.759Z,31.25
2018-07-17T11:22:04.065Z,31.375
2018-07-17T11:23:03.227Z,31.437
2018-07-17T11:24:03.554Z,31.5
2018-07-17T11:25:03.836Z,31.562
2018-07-17T11:26:04.108Z,31.5
2018-07-17T11:27:03.327Z,31.562
2018-07-17T11:28:03.711Z,31.562
2018-07-17T11:29:03.992Z,31.312
2018-07-17T11:30:03.378Z,30.937
2018-07-17T11:31:03.744Z,30.562
2018-07-17T11:32:04.153Z,30.187
2018-07-17T11:33:03.550Z,29.812
2018-07-17T11:34:03.720Z,29.812
2018-07-17T11:35:04.013Z,30
2018-07-17T11:36:03.464Z,30.25
2018-07-17T11:37:03.621Z,30.375
2018-07-17T11:38:03.799Z,30.625
2018-07-17T11:39:04.322Z,30.625
2018-07-17T11:40:03.496Z,30.5
2018-07-17T11:41:03.656Z,30.562
2018-07-17T11:42:03.828Z,30.687
2018-07-17T11:43:03.343Z,30.875
2018-07-17T11:44:03.733Z,31.062
2018-07-17T11:45:03.889Z,31.187
2018-07-17T11:46:03.561Z,31.437
2018-07-17T11:47:03.790Z,31.812
2018-07-17T11:48:03.996Z,31.937
2018-07-17T11:49:03.625Z,31.875
2018-07-17T11:50:03.871Z,31.937
2018-07-17T11:51:03.981Z,31.937
2018-07-17T11:52:03.322Z,31.875
2018-07-17T11:53:03.400Z,31.937
2018-07-17T11:54:03.744Z,31.937
2018-07-17T11:55:03.986Z,31.875
2018-07-17T11:56:03.363Z,31.687
2018-07-17T11:57:03.817Z,31.687
2018-07-17T11:58:04.151Z,31.812
2018-07-17T11:59:03.499Z,32
2018-07-17T12:00:03.906Z,32.25
2018-07-17T12:01:03.395Z,32.312
2018-07-17T12:02:03.919Z,32.312
2018-07-17T12:03:03.445Z,32.187
2018-07-17T12:04:03.894Z,32.125
2018-07-17T12:05:03.249Z,32.125
2018-07-17T12:06:03.457Z,32.062
2018-07-17T12:07:03.882Z,31.937
2018-07-17T12:08:03.397Z,31.75
2018-07-17T12:09:03.768Z,31.625
2018-07-17T12:10:04.097Z,31.75
2018-07-17T12:11:03.409Z,31.625
2018-07-17T12:12:03.614Z,31.375
2018-07-17T12:13:03.953Z,31.062
2018-07-17T12:14:04.191Z,30.812
2018-07-17T12:15:03.563Z,30.625
2018-07-17T12:16:03.623Z,30.625
2018-07-17T12:17:04.167Z,30.562
2018-07-17T12:18:03.284Z,30.687
2018-07-17T12:19:03.626Z,30.687
2018-07-17T12:20:04.036Z,30.625
2018-07-17T12:21:03.373Z,30.562
2018-07-17T12:22:03.604Z,30.562
2018-07-17T12:23:03.803Z,30.562
2018-07-17T12:24:04.016Z,30.625
2018-07-17T12:25:04.164Z,30.687
2018-07-17T12:26:03.374Z,30.562
2018-07-17T12:27:03.747Z,30.562
2018-07-17T12:28:04.316Z,30.5
2018-07-17T12:29:03.363Z,30.75
2018-07-17T12:30:03.818Z,30.875
2018-07-17T12:31:03.958Z,30.937
2018-07-17T12:32:04.157Z,30.875
2018-07-17T12:33:03.463Z,30.812
2018-07-17T12:34:03.669Z,30.75
2018-07-17T12:35:04.164Z,30.625
2018-07-17T12:36:03.536Z,30.687
2018-07-17T12:37:03.808Z,30.75
2018-07-17T12:38:03.972Z,30.75
2018-07-17T12:39:03.656Z,30.5
2018-07-17T12:40:03.826Z,30.25
2018-07-17T12:41:03.332Z,30.312
2018-07-17T12:42:03.523Z,30.437
2018-07-17T12:43:03.884Z,30.312
2018-07-17T12:44:03.585Z,30.25
2018-07-17T12:45:04.056Z,30.312
2018-07-17T12:46:03.419Z,30.437
2018-07-17T12:47:03.553Z,30.75
2018-07-17T12:48:04.028Z,31.062
2018-07-17T12:49:03.161Z,31
2018-07-17T12:50:03.464Z,30.937